createdAt,value
2023-01-05T00:00:51.844Z,21.90
2023-01-05T00:03:18.504Z,21.90
2023-01-05T00:05:45.109Z,21.90
2023-01-05T00:08:12.234Z,21.90
2023-01-05T00:10:57.719Z,21.90
2023-01-05T00:13:47.532Z,21.90
2023-01-05T00:16:33.017Z,21.90
2023-01-05T00:19:18.298Z,21.90
2023-01-05T00:22:03.648Z,21.90
2023-01-05T00:24:30.355Z,21.90
2023-01-05T00:26:56.960Z,21.90
2023-01-05T00:29:23.593Z,21.90
2023-01-05T00:31:50.220Z,21.90
2023-01-05T00:34:16.835Z,21.90
2023-01-05T00:36:43.429Z,21.90
2023-01-05T00:39:10.012Z,21.90
2023-01-05T00:41:36.609Z,21.90
2023-01-05T00:44:03.202Z,21.90
2023-01-05T00:46:29.807Z,21.90
2023-01-05T00:48:56.468Z,21.90
2023-01-05T00:51:23.080Z,21.90
2023-01-05T00:53:49.700Z,21.90
2023-01-05T00:56:16.307Z,21.90
2023-01-05T00:58:42.902Z,21.90
2023-01-05T01:01:12.863Z,21.90
2023-01-05T01:03:39.749Z,21.90
2023-01-05T01:06:06.542Z,21.90
2023-01-05T01:08:33.182Z,21.90
2023-01-05T01:11:06.835Z,21.90
2023-01-05T01:13:33.438Z,21.90
2023-01-05T01:16:06.804Z,21.90
2023-01-05T01:18:33.477Z,21.90
2023-01-05T01:21:00.102Z,21.90
2023-01-05T01:23:27.021Z,21.90
2023-01-05T01:25:53.663Z,21.80
2023-01-05T01:28:20.275Z,21.90
2023-01-05T01:30:46.858Z,21.80
2023-01-05T01:33:13.471Z,21.90
2023-01-05T01:35:40.055Z,21.90
2023-01-05T01:38:06.649Z,21.90
2023-01-05T01:40:41.485Z,21.90
2023-01-05T01:43:19.178Z,21.90
2023-01-05T01:45:45.822Z,21.90
2023-01-05T01:48:14.561Z,21.80
2023-01-05T01:50:43.888Z,21.90
2023-01-05T01:53:31.770Z,21.90
2023-01-05T01:56:00.367Z,21.80
2023-01-05T01:58:27.752Z,21.90
2023-01-05T02:00:54.480Z,21.80
2023-01-05T02:03:21.122Z,21.80
2023-01-05T02:05:47.724Z,21.80
2023-01-05T02:08:15.350Z,21.80
2023-01-05T02:11:05.794Z,21.90
2023-01-05T02:13:54.016Z,21.80
2023-01-05T02:16:37.621Z,21.80
2023-01-05T02:19:44.554Z,21.80
2023-01-05T02:22:44.796Z,21.80
2023-01-05T02:25:43.721Z,21.80
2023-01-05T02:28:28.791Z,21.80
2023-01-05T02:31:08.764Z,21.80
2023-01-05T02:34:07.401Z,21.80
2023-01-05T02:36:40.398Z,21.80
2023-01-05T02:39:28.223Z,21.80
2023-01-05T02:42:22.675Z,21.80
2023-01-05T02:44:49.502Z,21.80
2023-01-05T02:47:25.121Z,21.80
2023-01-05T02:49:52.753Z,21.80
2023-01-05T02:52:19.407Z,21.80
2023-01-05T02:54:51.798Z,21.80
2023-01-05T02:57:20.377Z,21.80
2023-01-05T02:59:53.348Z,21.80
2023-01-05T03:02:22.393Z,21.80
2023-01-05T03:04:51.238Z,21.80
2023-01-05T03:07:21.764Z,21.80
2023-01-05T03:09:48.362Z,21.80
2023-01-05T03:12:51.609Z,21.80
2023-01-05T03:15:26.767Z,21.80
2023-01-05T03:17:58.999Z,21.80
2023-01-05T03:20:29.678Z,21.80
2023-01-05T03:23:15.306Z,21.80
2023-01-05T03:26:00.389Z,21.80
2023-01-05T03:28:49.083Z,21.80
2023-01-05T03:31:38.807Z,21.80
2023-01-05T03:34:50.807Z,21.80
2023-01-05T03:37:18.906Z,21.80
2023-01-05T03:39:46.089Z,21.80
2023-01-05T03:42:14.131Z,21.80
2023-01-05T03:44:41.838Z,21.80
2023-01-05T03:47:08.453Z,21.80
2023-01-05T03:49:35.086Z,21.80
2023-01-05T03:52:01.707Z,21.80
2023-01-05T03:54:28.303Z,21.80
2023-01-05T03:56:54.893Z,21.80
2023-01-05T03:59:21.498Z,21.80
2023-01-05T04:01:48.174Z,21.70
2023-01-05T04:04:14.842Z,21.80
2023-01-05T04:06:41.435Z,21.80
2023-01-05T04:09:08.044Z,21.70
2023-01-05T04:11:34.648Z,21.80
2023-01-05T04:14:01.479Z,21.80
2023-01-05T04:16:28.776Z,21.70
2023-01-05T04:18:55.503Z,21.80
2023-01-05T04:21:22.134Z,21.70
2023-01-05T04:23:48.773Z,21.70
2023-01-05T04:26:15.373Z,21.70
2023-01-05T04:28:41.986Z,21.70
2023-01-05T04:31:08.627Z,21.70
2023-01-05T04:33:36.324Z,21.70
2023-01-05T04:36:02.950Z,21.70
2023-01-05T04:38:29.541Z,21.70
2023-01-05T04:40:56.156Z,21.70
2023-01-05T04:43:23.075Z,21.70
2023-01-05T04:45:49.806Z,21.70
2023-01-05T04:48:16.450Z,21.70
2023-01-05T04:50:43.270Z,21.70
2023-01-05T04:53:10.055Z,21.70
2023-01-05T04:55:36.674Z,21.70
2023-01-05T04:58:08.315Z,21.70
2023-01-05T05:00:38.244Z,21.70
2023-01-05T05:03:04.921Z,21.70
2023-01-05T05:05:31.741Z,21.70
2023-01-05T05:07:58.374Z,21.70
2023-01-05T05:10:25.000Z,21.70
2023-01-05T05:12:51.592Z,21.70
2023-01-05T05:15:18.312Z,21.70
2023-01-05T05:17:44.922Z,21.70
2023-01-05T05:20:12.050Z,21.70
2023-01-05T05:22:38.662Z,21.70
2023-01-05T05:25:05.838Z,21.70
2023-01-05T05:27:32.421Z,21.70
2023-01-05T05:29:59.017Z,21.70
2023-01-05T05:32:25.615Z,21.70
2023-01-05T05:34:52.209Z,21.70
2023-01-05T05:37:18.789Z,21.70
2023-01-05T05:39:45.418Z,21.70
2023-01-05T05:42:12.144Z,21.70
2023-01-05T05:44:39.341Z,21.70
2023-01-05T05:47:06.004Z,21.70
2023-01-05T05:49:32.646Z,21.70
2023-01-05T05:51:59.284Z,21.70
2023-01-05T05:54:25.887Z,21.70
2023-01-05T05:56:52.518Z,21.70
2023-01-05T05:59:19.191Z,21.70
2023-01-05T06:01:45.883Z,21.70
2023-01-05T06:04:12.644Z,21.70
2023-01-05T06:06:39.820Z,21.70
2023-01-05T06:09:06.573Z,21.70
2023-01-05T06:11:33.424Z,21.70
2023-01-05T06:14:00.181Z,21.70
2023-01-05T06:16:26.847Z,21.70
2023-01-05T06:18:53.469Z,21.70
2023-01-05T06:21:21.401Z,21.70
2023-01-05T06:23:48.179Z,21.70
2023-01-05T06:26:14.814Z,21.70
2023-01-05T06:28:41.411Z,21.70
2023-01-05T06:31:08.091Z,21.70
2023-01-05T06:33:34.711Z,21.70
2023-01-05T06:36:01.365Z,21.60
2023-01-05T06:38:28.057Z,21.70
2023-01-05T06:40:54.750Z,21.70
2023-01-05T06:43:21.495Z,21.70
2023-01-05T06:45:48.215Z,21.70
2023-01-05T06:48:14.837Z,21.70
2023-01-05T06:50:41.468Z,21.70
2023-01-05T06:53:08.093Z,21.70
2023-01-05T06:55:34.703Z,21.70
2023-01-05T06:58:01.577Z,21.70
2023-01-05T07:00:28.552Z,21.70
2023-01-05T07:02:55.208Z,21.70
2023-01-05T07:05:23.205Z,21.70
2023-01-05T07:07:50.136Z,21.70
2023-01-05T07:10:16.806Z,21.70
2023-01-05T07:12:43.401Z,21.70
2023-01-05T07:15:10.302Z,21.70
2023-01-05T07:17:36.907Z,21.70
2023-01-05T07:20:05.042Z,21.70
2023-01-05T07:22:31.731Z,21.70
2023-01-05T07:24:58.857Z,21.70
2023-01-05T07:27:25.477Z,21.70
2023-01-05T07:29:52.075Z,21.60
2023-01-05T07:32:18.819Z,21.70
2023-01-05T07:34:54.970Z,21.70
2023-01-05T07:37:24.511Z,21.70
2023-01-05T07:39:51.209Z,21.70
2023-01-05T07:42:17.806Z,21.70
2023-01-05T07:44:45.251Z,21.70
2023-01-05T07:47:11.972Z,21.60
2023-01-05T07:49:38.645Z,21.70
2023-01-05T07:52:05.256Z,21.70
2023-01-05T07:54:31.843Z,21.60
2023-01-05T07:56:58.463Z,21.70
2023-01-05T07:59:25.109Z,21.60
2023-01-05T08:01:51.824Z,21.70
2023-01-05T08:04:18.485Z,21.60
2023-01-05T08:06:45.116Z,21.60
2023-01-05T08:09:30.002Z,21.60
2023-01-05T08:11:56.608Z,21.70
2023-01-05T08:14:23.198Z,21.60
2023-01-05T08:16:49.975Z,21.60
2023-01-05T08:19:16.611Z,21.60
2023-01-05T08:21:43.210Z,21.60
2023-01-05T08:24:09.805Z,21.60
2023-01-05T08:26:36.458Z,21.70
2023-01-05T08:29:03.123Z,21.70
2023-01-05T08:31:30.602Z,21.70
2023-01-05T08:33:59.727Z,21.60
2023-01-05T08:36:26.641Z,21.70
2023-01-05T08:38:53.780Z,21.70
2023-01-05T08:41:22.513Z,21.60
2023-01-05T08:43:53.023Z,21.60
2023-01-05T08:46:20.633Z,21.60
2023-01-05T08:48:51.191Z,21.60
2023-01-05T08:51:17.939Z,21.70
2023-01-05T08:53:44.640Z,21.70
2023-01-05T08:56:11.320Z,21.70
2023-01-05T08:58:38.564Z,21.70
2023-01-05T09:01:09.301Z,21.60
2023-01-05T09:03:36.027Z,21.60
2023-01-05T09:06:03.428Z,21.70
2023-01-05T09:08:30.910Z,21.60
2023-01-05T09:11:06.958Z,21.60
2023-01-05T09:13:33.812Z,21.60
2023-01-05T09:16:11.217Z,21.60
2023-01-05T09:18:38.349Z,21.70
2023-01-05T09:21:06.157Z,21.70
2023-01-05T09:23:33.219Z,21.70
2023-01-05T09:25:59.844Z,21.70
2023-01-05T09:28:26.561Z,21.70
2023-01-05T09:30:53.219Z,21.70
2023-01-05T09:33:19.866Z,21.70
2023-01-05T09:35:56.413Z,21.70
2023-01-05T09:38:23.565Z,21.70
2023-01-05T09:40:51.287Z,21.70
2023-01-05T09:43:27.373Z,21.70
2023-01-05T09:45:54.099Z,21.70
2023-01-05T09:48:20.740Z,21.70
2023-01-05T09:50:48.321Z,21.80
2023-01-05T09:53:15.670Z,21.80
2023-01-05T09:55:42.584Z,21.80
2023-01-05T09:58:17.572Z,21.80
2023-01-05T10:00:45.953Z,21.80
2023-01-05T10:03:53.202Z,21.80
2023-01-05T10:06:16.069Z,21.80
2023-01-05T10:08:46.997Z,21.80
2023-01-05T10:12:02.029Z,21.80
2023-01-05T10:14:30.029Z,21.80
2023-01-05T10:17:30.184Z,21.80
2023-01-05T10:19:43.247Z,21.90
2023-01-05T10:22:26.856Z,21.90
2023-01-05T10:25:08.606Z,21.90
2023-01-05T10:27:42.037Z,21.90
2023-01-05T10:30:25.924Z,21.90
2023-01-05T10:33:25.506Z,21.90
2023-01-05T10:36:01.905Z,21.90
2023-01-05T10:38:55.148Z,21.90
2023-01-05T10:41:36.926Z,21.90
2023-01-05T10:44:50.345Z,21.90
2023-01-05T10:47:16.964Z,21.90
2023-01-05T10:49:45.106Z,22.00
2023-01-05T10:52:14.329Z,21.90
2023-01-05T10:54:44.532Z,21.90
2023-01-05T10:57:36.509Z,21.90
2023-01-05T11:00:12.527Z,22.00
2023-01-05T11:02:48.093Z,22.00
2023-01-05T11:05:19.078Z,21.90
2023-01-05T11:08:18.381Z,22.00
2023-01-05T11:10:53.132Z,21.90
2023-01-05T11:13:22.855Z,21.90
2023-01-05T11:15:57.358Z,22.00
2023-01-05T11:18:30.611Z,22.00
2023-01-05T11:21:07.892Z,22.00
2023-01-05T11:23:48.508Z,22.00
2023-01-05T11:26:18.089Z,22.00
2023-01-05T11:29:02.847Z,22.00
2023-01-05T11:31:35.437Z,22.00
2023-01-05T11:34:28.548Z,22.00
2023-01-05T11:37:08.362Z,22.00
2023-01-05T11:39:37.777Z,22.00
2023-01-05T11:42:17.438Z,22.00
2023-01-05T11:44:55.780Z,22.00
2023-01-05T11:47:45.863Z,22.00
2023-01-05T11:50:47.604Z,22.00
2023-01-05T11:53:31.842Z,22.00
2023-01-05T11:56:01.410Z,22.00
2023-01-05T11:58:44.190Z,22.00
2023-01-05T12:01:27.280Z,22.00
2023-01-05T12:04:08.123Z,22.00
2023-01-05T12:06:34.711Z,22.00
2023-01-05T12:09:06.865Z,22.00
2023-01-05T12:11:44.137Z,22.00
2023-01-05T12:14:30.480Z,22.00
2023-01-05T12:16:57.150Z,22.00
2023-01-05T12:19:33.634Z,22.00
2023-01-05T12:22:21.225Z,22.10
2023-01-05T12:25:06.555Z,22.10
2023-01-05T12:28:00.423Z,22.10
2023-01-05T12:34:05.042Z,22.10
2023-01-05T12:36:45.765Z,22.10
2023-01-05T12:39:35.623Z,22.10
2023-01-05T12:42:27.283Z,22.10
2023-01-05T12:45:03.085Z,22.10
2023-01-05T12:47:48.683Z,22.10
2023-01-05T12:50:38.687Z,22.10
2023-01-05T12:53:29.486Z,22.10
2023-01-05T12:55:57.355Z,22.10
2023-01-05T12:58:43.275Z,22.10
2023-01-05T13:01:25.774Z,22.10
2023-01-05T13:04:04.141Z,22.10
2023-01-05T13:06:35.434Z,22.10
2023-01-05T13:09:21.728Z,22.10
2023-01-05T13:12:08.038Z,22.10
2023-01-05T13:14:35.946Z,22.10
2023-01-05T13:17:23.144Z,22.10
2023-01-05T13:20:02.239Z,22.10
2023-01-05T13:22:34.162Z,22.10
2023-01-05T13:25:05.581Z,22.10
2023-01-05T13:27:32.728Z,22.10
2023-01-05T13:29:59.612Z,22.10
2023-01-05T13:32:53.847Z,22.20
2023-01-05T13:35:58.157Z,22.20
2023-01-05T13:38:59.874Z,22.20
2023-01-05T13:41:41.249Z,22.10
2023-01-05T13:44:20.522Z,22.20
2023-01-05T13:47:15.789Z,22.20
2023-01-05T13:49:59.192Z,22.20
2023-01-05T13:53:03.322Z,22.10
2023-01-05T13:55:29.929Z,22.20
2023-01-05T13:57:56.586Z,22.20
2023-01-05T14:00:30.845Z,22.20
2023-01-05T14:03:09.693Z,22.20
2023-01-05T14:05:59.655Z,22.20
2023-01-05T14:08:34.398Z,22.20
2023-01-05T14:11:14.458Z,22.20
2023-01-05T14:14:04.738Z,22.20
2023-01-05T14:16:34.834Z,22.30
2023-01-05T14:19:32.881Z,22.30
2023-01-05T14:22:23.645Z,22.30
2023-01-05T14:24:50.303Z,22.20
2023-01-05T14:27:21.153Z,22.30
2023-01-05T14:29:53.912Z,22.30
2023-01-05T14:32:26.167Z,22.30
2023-01-05T14:34:57.881Z,22.30
2023-01-05T14:37:39.966Z,22.30
2023-01-05T14:40:20.664Z,22.30
2023-01-05T14:42:47.689Z,22.30
2023-01-05T14:45:31.479Z,22.30
2023-01-05T14:47:59.674Z,22.30
2023-01-05T14:50:42.508Z,22.30
2023-01-05T14:53:22.047Z,22.30
2023-01-05T14:55:51.407Z,22.30
2023-01-05T14:58:38.212Z,22.30
2023-01-05T15:01:18.749Z,22.30
2023-01-05T15:04:07.963Z,22.30
2023-01-05T15:06:55.193Z,22.30
2023-01-05T15:09:48.398Z,22.30
2023-01-05T15:12:24.443Z,22.30
2023-01-05T15:15:16.319Z,22.30
2023-01-05T15:17:59.113Z,22.30
2023-01-05T15:20:44.407Z,22.30
2023-01-05T15:23:45.886Z,22.30
2023-01-05T15:26:47.084Z,22.30
2023-01-05T15:29:28.857Z,22.30
2023-01-05T15:31:57.528Z,22.30
2023-01-05T15:34:29.199Z,22.30
2023-01-05T15:37:05.300Z,22.30
2023-01-05T15:39:46.453Z,22.40
2023-01-05T15:42:19.617Z,22.30
2023-01-05T15:44:47.454Z,22.40
2023-01-05T15:47:14.058Z,22.40
2023-01-05T15:49:40.771Z,22.40
2023-01-05T15:52:20.661Z,22.40
2023-01-05T15:55:17.094Z,22.40
2023-01-05T15:57:51.299Z,22.40
2023-01-05T16:00:23.861Z,22.40
2023-01-05T16:02:50.768Z,22.40
2023-01-05T16:05:22.461Z,22.40
2023-01-05T16:07:54.291Z,22.40
2023-01-05T16:10:42.560Z,22.40
2023-01-05T16:13:15.595Z,22.40
2023-01-05T16:15:42.366Z,22.40
2023-01-05T16:18:13.285Z,22.40
2023-01-05T16:20:41.099Z,22.40
2023-01-05T16:23:12.189Z,22.40
2023-01-05T16:25:43.839Z,22.40
2023-01-05T16:28:17.736Z,22.40
2023-01-05T16:30:45.440Z,22.40
2023-01-05T16:33:34.939Z,22.40
2023-01-05T16:36:09.059Z,22.40
2023-01-05T16:38:35.866Z,22.40
2023-01-05T16:41:13.373Z,22.40
2023-01-05T16:43:39.913Z,22.40
2023-01-05T16:46:23.906Z,22.40
2023-01-05T16:48:53.270Z,22.40
2023-01-05T16:51:24.016Z,22.40
2023-01-05T16:53:54.808Z,22.40
2023-01-05T16:56:22.399Z,22.40
2023-01-05T16:58:49.213Z,22.40
2023-01-05T17:01:35.798Z,22.40
2023-01-05T17:04:12.642Z,22.40
2023-01-05T17:06:39.489Z,22.40
2023-01-05T17:09:20.201Z,22.40
2023-01-05T17:11:46.844Z,22.40
2023-01-05T17:14:13.691Z,22.40
2023-01-05T17:16:40.498Z,22.40
2023-01-05T17:19:14.281Z,22.40
2023-01-05T17:21:46.053Z,22.40
2023-01-05T17:24:13.011Z,22.40
2023-01-05T17:26:42.774Z,22.40
2023-01-05T17:29:22.143Z,22.40
2023-01-05T17:31:48.826Z,22.40
2023-01-05T17:34:15.626Z,22.40
2023-01-05T17:36:42.342Z,22.40
2023-01-05T17:39:10.903Z,22.40
2023-01-05T17:41:37.505Z,22.40
2023-01-05T17:44:04.163Z,22.40
2023-01-05T17:46:32.471Z,22.40
2023-01-05T17:49:00.490Z,22.40
2023-01-05T17:51:28.167Z,22.40
2023-01-05T17:53:58.242Z,22.40
2023-01-05T17:56:25.214Z,22.40
2023-01-05T17:58:51.916Z,22.40
2023-01-05T18:01:18.745Z,22.40
2023-01-05T18:03:45.374Z,22.40
2023-01-05T18:06:12.105Z,22.40
2023-01-05T18:08:38.716Z,22.40
2023-01-05T18:11:05.914Z,22.40
2023-01-05T18:13:33.205Z,22.40
2023-01-05T18:15:59.942Z,22.40
2023-01-05T18:18:27.785Z,22.40
2023-01-05T18:20:54.395Z,22.40
2023-01-05T18:23:21.016Z,22.40
2023-01-05T18:25:47.658Z,22.40
2023-01-05T18:28:14.309Z,22.30
2023-01-05T18:30:41.864Z,22.40
2023-01-05T18:33:08.496Z,22.40
2023-01-05T18:35:36.141Z,22.40
2023-01-05T18:38:04.973Z,22.40
2023-01-05T18:40:31.603Z,22.30
2023-01-05T18:42:58.212Z,22.40
2023-01-05T18:45:38.415Z,22.30
2023-01-05T18:48:05.841Z,22.30
2023-01-05T18:50:32.432Z,22.40
2023-01-05T18:52:59.034Z,22.40
2023-01-05T18:55:25.614Z,22.40
2023-01-05T18:57:52.240Z,22.30
2023-01-05T19:00:18.920Z,22.40
2023-01-05T19:02:45.523Z,22.40
2023-01-05T19:05:12.134Z,22.40
2023-01-05T19:07:39.750Z,22.40
2023-01-05T19:10:06.794Z,22.30
2023-01-05T19:12:33.427Z,22.40
2023-01-05T19:15:00.033Z,22.30
2023-01-05T19:17:26.634Z,22.30
2023-01-05T19:19:54.898Z,22.30
2023-01-05T19:22:21.518Z,22.30
2023-01-05T19:24:48.108Z,22.40
2023-01-05T19:27:14.718Z,22.30
2023-01-05T19:29:42.073Z,22.40
2023-01-05T19:32:08.712Z,22.40
2023-01-05T19:34:35.335Z,22.40
2023-01-05T19:37:05.442Z,22.40
2023-01-05T19:39:32.109Z,22.40
2023-01-05T19:41:58.746Z,22.40
2023-01-05T19:44:25.356Z,22.40
2023-01-05T19:46:53.273Z,22.40
2023-01-05T19:49:24.675Z,22.30
2023-01-05T19:51:51.352Z,22.40
2023-01-05T19:54:18.097Z,22.40
2023-01-05T19:56:44.833Z,22.40
2023-01-05T19:59:22.669Z,22.30
2023-01-05T20:01:49.309Z,22.30
2023-01-05T20:04:16.016Z,22.30
2023-01-05T20:06:44.320Z,22.40
2023-01-05T20:09:18.774Z,22.30
2023-01-05T20:11:48.753Z,22.30
2023-01-05T20:14:22.337Z,22.30
2023-01-05T20:16:55.838Z,22.30
2023-01-05T20:19:23.482Z,22.30
2023-01-05T20:21:50.635Z,22.30
2023-01-05T20:24:19.145Z,22.30
2023-01-05T20:26:46.170Z,22.30
2023-01-05T20:29:13.606Z,22.30
2023-01-05T20:31:45.632Z,22.30
2023-01-05T20:34:15.517Z,22.30
2023-01-05T20:36:42.152Z,22.30
2023-01-05T20:39:09.422Z,22.30
2023-01-05T20:41:38.663Z,22.30
2023-01-05T20:44:05.547Z,22.30
2023-01-05T20:46:34.674Z,22.30
2023-01-05T20:49:01.295Z,22.30
2023-01-05T20:51:27.914Z,22.30
2023-01-05T20:53:55.066Z,22.30
2023-01-05T20:56:23.825Z,22.30
2023-01-05T20:58:51.409Z,22.30
2023-01-05T21:01:18.141Z,22.30
2023-01-05T21:03:44.893Z,22.30
2023-01-05T21:06:12.852Z,22.30
2023-01-05T21:08:39.531Z,22.30
2023-01-05T21:11:06.611Z,22.30
2023-01-05T21:13:33.437Z,22.30
2023-01-05T21:16:04.781Z,22.30
2023-01-05T21:18:32.535Z,22.30
2023-01-05T21:20:59.244Z,22.30
2023-01-05T21:23:26.050Z,22.30
2023-01-05T21:26:06.665Z,22.30
2023-01-05T21:28:37.635Z,22.30
2023-01-05T21:31:09.175Z,22.30
2023-01-05T21:33:36.361Z,22.30
2023-01-05T21:36:06.669Z,22.30
2023-01-05T21:39:01.681Z,22.30
2023-01-05T21:41:40.157Z,22.30
2023-01-05T21:44:07.394Z,22.30
2023-01-05T21:46:34.595Z,22.30
2023-01-05T21:49:01.223Z,22.30
2023-01-05T21:51:46.306Z,22.30
2023-01-05T21:54:31.728Z,22.30
2023-01-05T21:56:58.878Z,22.30
2023-01-05T21:59:25.637Z,22.30
2023-01-05T22:01:52.236Z,22.30
2023-01-05T22:04:18.921Z,22.30
2023-01-05T22:06:45.516Z,22.30
2023-01-05T22:09:12.118Z,22.30
2023-01-05T22:11:38.877Z,22.30
2023-01-05T22:14:05.476Z,22.30
2023-01-05T22:16:32.117Z,22.30
2023-01-05T22:18:58.743Z,22.30
2023-01-05T22:21:25.368Z,22.30
2023-01-05T22:23:51.985Z,22.30
2023-01-05T22:26:19.474Z,22.30
2023-01-05T22:28:47.756Z,22.30
2023-01-05T22:31:19.458Z,22.30
2023-01-05T22:33:49.645Z,22.30
2023-01-05T22:36:17.079Z,22.30
2023-01-05T22:38:44.445Z,22.30
2023-01-05T22:41:12.271Z,22.30
2023-01-05T22:43:39.925Z,22.30
2023-01-05T22:46:08.491Z,22.30
2023-01-05T22:48:36.183Z,22.30
2023-01-05T22:51:13.571Z,22.40
2023-01-05T22:53:40.474Z,22.30
2023-01-05T22:56:09.111Z,22.30
2023-01-05T22:58:35.830Z,22.30
2023-01-05T23:01:29.591Z,22.30
2023-01-05T23:03:57.437Z,22.40
2023-01-05T23:06:24.155Z,22.30
2023-01-05T23:08:50.950Z,22.30
2023-01-05T23:11:31.916Z,22.40
2023-01-05T23:13:59.285Z,22.40
2023-01-05T23:16:26.023Z,22.30
2023-01-05T23:18:52.796Z,22.30
2023-01-05T23:21:20.497Z,22.30
2023-01-05T23:23:47.273Z,22.40
2023-01-05T23:26:14.633Z,22.40
2023-01-05T23:28:42.687Z,22.30
2023-01-05T23:31:11.418Z,22.40
2023-01-05T23:33:38.085Z,22.40
2023-01-05T23:36:05.202Z,22.40
2023-01-05T23:38:32.117Z,22.40
2023-01-05T23:41:00.140Z,22.40
2023-01-05T23:43:28.158Z,22.30
2023-01-05T23:46:04.280Z,22.40
2023-01-05T23:48:31.031Z,22.30
2023-01-05T23:50:58.030Z,22.30
2023-01-05T23:53:25.060Z,22.30
2023-01-05T23:55:51.723Z,22.30
2023-01-05T23:58:18.306Z,22.30
